sensor_id;sensor_type;location;lat;lon;timestamp;P1;durP1;ratioP1;P2;durP2;ratioP2
2848;SDS011;59355;52.416;13.412;2022-07-23T00:00:33;10.63;;;8.40;;
2848;SDS011;59355;52.416;13.412;2022-07-23T00:02:59;10.30;;;9.40;;
2848;SDS011;59355;52.416;13.412;2022-07-23T00:05:25;8.87;;;8.17;;
2848;SDS011;59355;52.416;13.412;2022-07-23T00:07:51;9.17;;;8.10;;
2848;SDS011;59355;52.416;13.412;2022-07-23T00:10:17;8.97;;;8.07;;
2848;SDS011;59355;52.416;13.412;2022-07-23T00:12:43;10.63;;;7.97;;
2848;SDS011;59355;52.416;13.412;2022-07-23T00:15:10;7.73;;;7.10;;
2848;SDS011;59355;52.416;13.412;2022-07-23T00:17:36;9.70;;;8.50;;
2848;SDS011;59355;52.416;13.412;2022-07-23T00:20:03;8.10;;;7.37;;
2848;SDS011;59355;52.416;13.412;2022-07-23T00:22:29;7.67;;;6.97;;
2848;SDS011;59355;52.416;13.412;2022-07-23T00:24:56;8.73;;;7.93;;
2848;SDS011;59355;52.416;13.412;2022-07-23T00:27:22;9.17;;;7.83;;
2848;SDS011;59355;52.416;13.412;2022-07-23T00:29:48;8.50;;;7.70;;
2848;SDS011;59355;52.416;13.412;2022-07-23T00:32:14;9.40;;;8.57;;
2848;SDS011;59355;52.416;13.412;2022-07-23T00:34:40;8.93;;;8.03;;
2848;SDS011;59355;52.416;13.412;2022-07-23T00:37:07;11.23;;;7.63;;
2848;SDS011;59355;52.416;13.412;2022-07-23T00:39:33;8.67;;;7.87;;
2848;SDS011;59355;52.416;13.412;2022-07-23T00:41:59;12.60;;;8.73;;
2848;SDS011;59355;52.416;13.412;2022-07-23T00:44:26;13.07;;;7.63;;
2848;SDS011;59355;52.416;13.412;2022-07-23T00:46:57;9.10;;;8.40;;
2848;SDS011;59355;52.416;13.412;2022-07-23T00:49:25;9.20;;;7.67;;
2848;SDS011;59355;52.416;13.412;2022-07-23T00:51:52;9.27;;;8.20;;
2848;SDS011;59355;52.416;13.412;2022-07-23T00:54:19;8.30;;;7.60;;
2848;SDS011;59355;52.416;13.412;2022-07-23T00:56:47;9.17;;;7.90;;
2848;SDS011;59355;52.416;13.412;2022-07-23T00:59:13;8.00;;;7.20;;
2848;SDS011;59355;52.416;13.412;2022-07-23T01:01:39;8.47;;;7.77;;
2848;SDS011;59355;52.416;13.412;2022-07-23T01:04:06;9.73;;;8.53;;
2848;SDS011;59355;52.416;13.412;2022-07-23T01:06:36;9.23;;;8.23;;
2848;SDS011;59355;52.416;13.412;2022-07-23T01:09:03;8.33;;;7.63;;
2848;SDS011;59355;52.416;13.412;2022-07-23T01:11:34;8.43;;;7.63;;
2848;SDS011;59355;52.416;13.412;2022-07-23T01:14:11;9.80;;;8.13;;
2848;SDS011;59355;52.416;13.412;2022-07-23T01:16:38;8.80;;;7.90;;
2848;SDS011;59355;52.416;13.412;2022-07-23T01:19:05;8.67;;;7.77;;
2848;SDS011;59355;52.416;13.412;2022-07-23T01:21:34;8.80;;;8.00;;
2848;SDS011;59355;52.416;13.412;2022-07-23T01:24:02;8.10;;;7.20;;
2848;SDS011;59355;52.416;13.412;2022-07-23T01:26:29;8.70;;;7.90;;
2848;SDS011;59355;52.416;13.412;2022-07-23T01:28:55;8.80;;;8.03;;
2848;SDS011;59355;52.416;13.412;2022-07-23T01:31:22;8.87;;;7.83;;
2848;SDS011;59355;52.416;13.412;2022-07-23T01:33:48;8.60;;;7.80;;
2848;SDS011;59355;52.416;13.412;2022-07-23T01:36:14;7.30;;;6.60;;
2848;SDS011;59355;52.416;13.412;2022-07-23T01:38:40;9.90;;;7.23;;
2848;SDS011;59355;52.416;13.412;2022-07-23T01:41:06;7.73;;;7.03;;
2848;SDS011;59355;52.416;13.412;2022-07-23T01:43:32;9.73;;;8.07;;
2848;SDS011;59355;52.416;13.412;2022-07-23T01:45:58;9.90;;;8.90;;
2848;SDS011;59355;52.416;13.412;2022-07-23T01:48:24;7.77;;;7.00;;
2848;SDS011;59355;52.416;13.412;2022-07-23T01:50:50;11.13;;;7.43;;
2848;SDS011;59355;52.416;13.412;2022-07-23T01:53:17;9.07;;;7.83;;
2848;SDS011;59355;52.416;13.412;2022-07-23T01:55:43;8.57;;;7.77;;
2848;SDS011;59355;52.416;13.412;2022-07-23T01:58:10;7.50;;;6.80;;
2848;SDS011;59355;52.416;13.412;2022-07-23T02:00:36;9.57;;;8.60;;
2848;SDS011;59355;52.416;13.412;2022-07-23T02:03:02;9.40;;;8.07;;
2848;SDS011;59355;52.416;13.412;2022-07-23T02:05:28;8.90;;;7.10;;
2848;SDS011;59355;52.416;13.412;2022-07-23T02:07:55;8.40;;;7.70;;
2848;SDS011;59355;52.416;13.412;2022-07-23T02:10:22;10.07;;;9.00;;
2848;SDS011;59355;52.416;13.412;2022-07-23T02:12:48;8.60;;;7.83;;
2848;SDS011;59355;52.416;13.412;2022-07-23T02:15:14;7.03;;;6.33;;
2848;SDS011;59355;52.416;13.412;2022-07-23T02:17:40;7.80;;;7.10;;
2848;SDS011;59355;52.416;13.412;2022-07-23T02:20:07;8.40;;;7.67;;
2848;SDS011;59355;52.416;13.412;2022-07-23T02:22:34;9.83;;;7.33;;
2848;SDS011;59355;52.416;13.412;2022-07-23T02:25:02;9.23;;;7.17;;
2848;SDS011;59355;52.416;13.412;2022-07-23T02:27:29;8.20;;;7.40;;
2848;SDS011;59355;52.416;13.412;2022-07-23T02:29:55;8.17;;;7.37;;
2848;SDS011;59355;52.416;13.412;2022-07-23T02:32:21;7.03;;;6.43;;
2848;SDS011;59355;52.416;13.412;2022-07-23T02:34:47;7.80;;;7.00;;
2848;SDS011;59355;52.416;13.412;2022-07-23T02:37:13;8.60;;;7.90;;
2848;SDS011;59355;52.416;13.412;2022-07-23T02:39:39;8.30;;;7.40;;
2848;SDS011;59355;52.416;13.412;2022-07-23T02:42:05;7.73;;;6.97;;
2848;SDS011;59355;52.416;13.412;2022-07-23T02:44:32;10.90;;;8.47;;
2848;SDS011;59355;52.416;13.412;2022-07-23T02:46:58;7.30;;;6.70;;
2848;SDS011;59355;52.416;13.412;2022-07-23T02:49:24;7.50;;;6.80;;
2848;SDS011;59355;52.416;13.412;2022-07-23T02:51:57;8.40;;;7.70;;
2848;SDS011;59355;52.416;13.412;2022-07-23T02:54:23;10.67;;;9.57;;
2848;SDS011;59355;52.416;13.412;2022-07-23T02:56:49;9.07;;;8.27;;
2848;SDS011;59355;52.416;13.412;2022-07-23T02:59:17;10.90;;;6.90;;
2848;SDS011;59355;52.416;13.412;2022-07-23T03:01:43;11.00;;;7.43;;
2848;SDS011;59355;52.416;13.412;2022-07-23T03:04:10;8.93;;;7.97;;
2848;SDS011;59355;52.416;13.412;2022-07-23T03:06:36;11.37;;;6.87;;
2848;SDS011;59355;52.416;13.412;2022-07-23T03:09:02;7.90;;;7.20;;
2848;SDS011;59355;52.416;13.412;2022-07-23T03:11:29;7.70;;;7.00;;
2848;SDS011;59355;52.416;13.412;2022-07-23T03:13:55;8.17;;;7.37;;
2848;SDS011;59355;52.416;13.412;2022-07-23T03:16:21;9.30;;;7.10;;
2848;SDS011;59355;52.416;13.412;2022-07-23T03:18:47;8.80;;;7.80;;
2848;SDS011;59355;52.416;13.412;2022-07-23T03:21:13;7.27;;;6.57;;
2848;SDS011;59355;52.416;13.412;2022-07-23T03:23:39;8.13;;;7.23;;
2848;SDS011;59355;52.416;13.412;2022-07-23T03:26:05;7.77;;;6.60;;
2848;SDS011;59355;52.416;13.412;2022-07-23T03:28:32;8.53;;;7.73;;
2848;SDS011;59355;52.416;13.412;2022-07-23T03:30:58;7.77;;;7.07;;
2848;SDS011;59355;52.416;13.412;2022-07-23T03:33:24;8.03;;;7.30;;
2848;SDS011;59355;52.416;13.412;2022-07-23T03:35:50;8.17;;;7.37;;
2848;SDS011;59355;52.416;13.412;2022-07-23T03:38:16;8.10;;;7.03;;
2848;SDS011;59355;52.416;13.412;2022-07-23T03:40:42;9.23;;;8.23;;
2848;SDS011;59355;52.416;13.412;2022-07-23T03:43:08;10.23;;;7.67;;
2848;SDS011;59355;52.416;13.412;2022-07-23T03:45:34;8.33;;;7.33;;
2848;SDS011;59355;52.416;13.412;2022-07-23T03:48:00;7.87;;;7.07;;
2848;SDS011;59355;52.416;13.412;2022-07-23T03:50:26;8.43;;;7.10;;
2848;SDS011;59355;52.416;13.412;2022-07-23T03:52:52;8.57;;;7.67;;
2848;SDS011;59355;52.416;13.412;2022-07-23T03:55:19;9.40;;;7.37;;
2848;SDS011;59355;52.416;13.412;2022-07-23T03:57:45;8.83;;;7.93;;
2848;SDS011;59355;52.416;13.412;2022-07-23T04:00:12;7.13;;;6.43;;
2848;SDS011;59355;52.416;13.412;2022-07-23T04:02:39;7.97;;;6.40;;
2848;SDS011;59355;52.416;13.412;2022-07-23T04:05:05;8.10;;;6.67;;
2848;SDS011;59355;52.416;13.412;2022-07-23T04:07:31;7.53;;;6.10;;
2848;SDS011;59355;52.416;13.412;2022-07-23T04:09:58;7.47;;;6.20;;
2848;SDS011;59355;52.416;13.412;2022-07-23T04:12:24;7.70;;;6.40;;
2848;SDS011;59355;52.416;13.412;2022-07-23T04:14:50;6.47;;;5.77;;
2848;SDS011;59355;52.416;13.412;2022-07-23T04:17:16;7.83;;;5.40;;
2848;SDS011;59355;52.416;13.412;2022-07-23T04:19:42;6.83;;;6.13;;
2848;SDS011;59355;52.416;13.412;2022-07-23T04:22:10;7.20;;;5.30;;
2848;SDS011;59355;52.416;13.412;2022-07-23T04:24:37;6.53;;;6.00;;
2848;SDS011;59355;52.416;13.412;2022-07-23T04:27:03;7.03;;;5.80;;
2848;SDS011;59355;52.416;13.412;2022-07-23T04:29:30;6.93;;;5.40;;
2848;SDS011;59355;52.416;13.412;2022-07-23T04:31:56;6.23;;;4.70;;
2848;SDS011;59355;52.416;13.412;2022-07-23T04:34:22;4.70;;;4.30;;
2848;SDS011;59355;52.416;13.412;2022-07-23T04:36:48;7.53;;;5.10;;
2848;SDS011;59355;52.416;13.412;2022-07-23T04:39:14;6.20;;;4.93;;
2848;SDS011;59355;52.416;13.412;2022-07-23T04:41:40;9.90;;;5.20;;
2848;SDS011;59355;52.416;13.412;2022-07-23T04:44:06;9.83;;;6.10;;
2848;SDS011;59355;52.416;13.412;2022-07-23T04:46:32;10.33;;;5.47;;
2848;SDS011;59355;52.416;13.412;2022-07-23T04:48:59;6.00;;;4.97;;
2848;SDS011;59355;52.416;13.412;2022-07-23T04:51:25;8.83;;;4.60;;
2848;SDS011;59355;52.416;13.412;2022-07-23T04:53:51;9.13;;;6.40;;
2848;SDS011;59355;52.416;13.412;2022-07-23T04:56:17;6.10;;;4.93;;
2848;SDS011;59355;52.416;13.412;2022-07-23T04:58:43;7.93;;;5.00;;
2848;SDS011;59355;52.416;13.412;2022-07-23T05:01:09;6.50;;;4.70;;
2848;SDS011;59355;52.416;13.412;2022-07-23T05:03:35;12.50;;;5.70;;
2848;SDS011;59355;52.416;13.412;2022-07-23T05:06:01;8.30;;;6.60;;
2848;SDS011;59355;52.416;13.412;2022-07-23T05:08:28;8.33;;;6.30;;
2848;SDS011;59355;52.416;13.412;2022-07-23T05:10:54;10.63;;;5.60;;
2848;SDS011;59355;52.416;13.412;2022-07-23T05:13:20;7.50;;;5.80;;
2848;SDS011;59355;52.416;13.412;2022-07-23T05:15:47;8.57;;;5.83;;
2848;SDS011;59355;52.416;13.412;2022-07-23T05:18:13;6.77;;;6.13;;
2848;SDS011;59355;52.416;13.412;2022-07-23T05:20:39;6.63;;;5.23;;
2848;SDS011;59355;52.416;13.412;2022-07-23T05:23:06;8.43;;;5.63;;
2848;SDS011;59355;52.416;13.412;2022-07-23T05:25:32;6.33;;;5.73;;
2848;SDS011;59355;52.416;13.412;2022-07-23T05:27:58;7.70;;;5.70;;
2848;SDS011;59355;52.416;13.412;2022-07-23T05:30:24;6.60;;;5.20;;
2848;SDS011;59355;52.416;13.412;2022-07-23T05:32:50;8.63;;;5.40;;
2848;SDS011;59355;52.416;13.412;2022-07-23T05:35:16;9.37;;;4.80;;
2848;SDS011;59355;52.416;13.412;2022-07-23T05:37:42;5.87;;;5.07;;
2848;SDS011;59355;52.416;13.412;2022-07-23T05:40:09;5.60;;;5.10;;
2848;SDS011;59355;52.416;13.412;2022-07-23T05:42:36;6.70;;;5.00;;
2848;SDS011;59355;52.416;13.412;2022-07-23T05:45:04;7.33;;;5.00;;
2848;SDS011;59355;52.416;13.412;2022-07-23T05:47:40;8.83;;;5.60;;
2848;SDS011;59355;52.416;13.412;2022-07-23T05:50:08;7.43;;;6.00;;
2848;SDS011;59355;52.416;13.412;2022-07-23T05:52:34;5.10;;;4.30;;
2848;SDS011;59355;52.416;13.412;2022-07-23T05:55:00;5.57;;;5.07;;
2848;SDS011;59355;52.416;13.412;2022-07-23T05:57:26;7.20;;;4.77;;
2848;SDS011;59355;52.416;13.412;2022-07-23T05:59:52;5.60;;;4.90;;
2848;SDS011;59355;52.416;13.412;2022-07-23T06:02:18;13.50;;;5.60;;
2848;SDS011;59355;52.416;13.412;2022-07-23T06:04:44;11.10;;;4.70;;
2848;SDS011;59355;52.416;13.412;2022-07-23T06:07:11;6.13;;;4.70;;
2848;SDS011;59355;52.416;13.412;2022-07-23T06:09:37;4.67;;;4.20;;
2848;SDS011;59355;52.416;13.412;2022-07-23T06:12:03;6.70;;;5.23;;
2848;SDS011;59355;52.416;13.412;2022-07-23T06:14:30;6.07;;;4.57;;
2848;SDS011;59355;52.416;13.412;2022-07-23T06:16:56;7.17;;;4.87;;
2848;SDS011;59355;52.416;13.412;2022-07-23T06:19:22;7.63;;;5.30;;
2848;SDS011;59355;52.416;13.412;2022-07-23T06:21:48;5.63;;;5.13;;
2848;SDS011;59355;52.416;13.412;2022-07-23T06:24:14;9.47;;;5.80;;
2848;SDS011;59355;52.416;13.412;2022-07-23T06:26:40;6.07;;;5.50;;
2848;SDS011;59355;52.416;13.412;2022-07-23T06:29:06;8.40;;;4.30;;
2848;SDS011;59355;52.416;13.412;2022-07-23T06:31:32;5.33;;;4.87;;
2848;SDS011;59355;52.416;13.412;2022-07-23T06:33:59;7.23;;;5.30;;
2848;SDS011;59355;52.416;13.412;2022-07-23T06:36:25;9.00;;;5.43;;
2848;SDS011;59355;52.416;13.412;2022-07-23T06:38:51;8.03;;;5.67;;
2848;SDS011;59355;52.416;13.412;2022-07-23T06:41:17;10.57;;;5.40;;
2848;SDS011;59355;52.416;13.412;2022-07-23T06:43:43;7.30;;;5.40;;
2848;SDS011;59355;52.416;13.412;2022-07-23T06:46:09;7.90;;;5.67;;
2848;SDS011;59355;52.416;13.412;2022-07-23T06:48:35;7.30;;;5.40;;
2848;SDS011;59355;52.416;13.412;2022-07-23T06:51:02;5.70;;;5.10;;
2848;SDS011;59355;52.416;13.412;2022-07-23T06:53:28;6.50;;;5.90;;
2848;SDS011;59355;52.416;13.412;2022-07-23T06:55:54;6.47;;;5.87;;
2848;SDS011;59355;52.416;13.412;2022-07-23T06:58:20;7.73;;;6.17;;
2848;SDS011;59355;52.416;13.412;2022-07-23T07:00:46;7.40;;;5.87;;
2848;SDS011;59355;52.416;13.412;2022-07-23T07:03:12;8.40;;;6.33;;
2848;SDS011;59355;52.416;13.412;2022-07-23T07:05:38;8.70;;;6.33;;
2848;SDS011;59355;52.416;13.412;2022-07-23T07:08:07;8.43;;;7.53;;
2848;SDS011;59355;52.416;13.412;2022-07-23T07:10:33;7.03;;;6.00;;
2848;SDS011;59355;52.416;13.412;2022-07-23T07:12:59;8.30;;;6.70;;
2848;SDS011;59355;52.416;13.412;2022-07-23T07:15:25;9.33;;;8.00;;
2848;SDS011;59355;52.416;13.412;2022-07-23T07:17:51;7.20;;;5.90;;
2848;SDS011;59355;52.416;13.412;2022-07-23T07:20:18;9.67;;;5.53;;
2848;SDS011;59355;52.416;13.412;2022-07-23T07:22:44;6.00;;;5.03;;
2848;SDS011;59355;52.416;13.412;2022-07-23T07:25:10;6.53;;;5.93;;
2848;SDS011;59355;52.416;13.412;2022-07-23T07:27:36;8.37;;;5.90;;
2848;SDS011;59355;52.416;13.412;2022-07-23T07:30:03;7.90;;;5.83;;
2848;SDS011;59355;52.416;13.412;2022-07-23T07:32:30;9.13;;;5.87;;
2848;SDS011;59355;52.416;13.412;2022-07-23T07:34:58;7.50;;;6.77;;
2848;SDS011;59355;52.416;13.412;2022-07-23T07:37:24;7.67;;;6.63;;
2848;SDS011;59355;52.416;13.412;2022-07-23T07:39:50;7.33;;;5.70;;
2848;SDS011;59355;52.416;13.412;2022-07-23T07:42:16;6.60;;;6.00;;
2848;SDS011;59355;52.416;13.412;2022-07-23T07:44:42;6.20;;;4.90;;
2848;SDS011;59355;52.416;13.412;2022-07-23T07:47:08;6.43;;;5.63;;
2848;SDS011;59355;52.416;13.412;2022-07-23T07:49:34;8.20;;;5.47;;
2848;SDS011;59355;52.416;13.412;2022-07-23T07:52:00;11.03;;;5.77;;
2848;SDS011;59355;52.416;13.412;2022-07-23T07:54:27;6.23;;;5.63;;
2848;SDS011;59355;52.416;13.412;2022-07-23T07:56:53;7.80;;;5.47;;
2848;SDS011;59355;52.416;13.412;2022-07-23T07:59:19;7.50;;;5.80;;
2848;SDS011;59355;52.416;13.412;2022-07-23T08:01:45;6.80;;;5.90;;
2848;SDS011;59355;52.416;13.412;2022-07-23T08:04:11;6.57;;;5.50;;
2848;SDS011;59355;52.416;13.412;2022-07-23T08:06:37;7.17;;;5.90;;
2848;SDS011;59355;52.416;13.412;2022-07-23T08:09:03;7.33;;;6.13;;
2848;SDS011;59355;52.416;13.412;2022-07-23T08:11:29;11.07;;;6.70;;
2848;SDS011;59355;52.416;13.412;2022-07-23T08:13:55;8.90;;;6.27;;
2848;SDS011;59355;52.416;13.412;2022-07-23T08:16:21;7.83;;;6.83;;
2848;SDS011;59355;52.416;13.412;2022-07-23T08:18:48;10.70;;;7.80;;
2848;SDS011;59355;52.416;13.412;2022-07-23T08:21:14;7.60;;;6.40;;
2848;SDS011;59355;52.416;13.412;2022-07-23T08:23:40;8.37;;;6.67;;
2848;SDS011;59355;52.416;13.412;2022-07-23T08:26:06;9.00;;;8.10;;
2848;SDS011;59355;52.416;13.412;2022-07-23T08:28:32;9.63;;;8.57;;
2848;SDS011;59355;52.416;13.412;2022-07-23T08:30:58;11.90;;;8.73;;
2848;SDS011;59355;52.416;13.412;2022-07-23T08:33:25;8.80;;;7.87;;
2848;SDS011;59355;52.416;13.412;2022-07-23T08:35:51;14.40;;;12.90;;
2848;SDS011;59355;52.416;13.412;2022-07-23T08:38:21;9.43;;;8.60;;
2848;SDS011;59355;52.416;13.412;2022-07-23T08:40:49;11.87;;;8.50;;
2848;SDS011;59355;52.416;13.412;2022-07-23T08:43:18;9.87;;;8.53;;
2848;SDS011;59355;52.416;13.412;2022-07-23T08:45:54;9.83;;;7.93;;
2848;SDS011;59355;52.416;13.412;2022-07-23T08:48:23;10.17;;;9.07;;
2848;SDS011;59355;52.416;13.412;2022-07-23T08:50:51;10.60;;;7.97;;
2848;SDS011;59355;52.416;13.412;2022-07-23T08:53:22;9.43;;;8.37;;
2848;SDS011;59355;52.416;13.412;2022-07-23T08:55:50;10.20;;;7.83;;
2848;SDS011;59355;52.416;13.412;2022-07-23T08:58:17;8.77;;;7.40;;
2848;SDS011;59355;52.416;13.412;2022-07-23T09:00:44;9.37;;;7.47;;
2848;SDS011;59355;52.416;13.412;2022-07-23T09:03:15;7.60;;;6.97;;
2848;SDS011;59355;52.416;13.412;2022-07-23T09:05:42;11.37;;;8.77;;
2848;SDS011;59355;52.416;13.412;2022-07-23T09:08:13;9.20;;;8.20;;
2848;SDS011;59355;52.416;13.412;2022-07-23T09:10:54;12.13;;;7.20;;
2848;SDS011;59355;52.416;13.412;2022-07-23T09:13:26;8.87;;;7.93;;
2848;SDS011;59355;52.416;13.412;2022-07-23T09:15:55;9.90;;;7.73;;
2848;SDS011;59355;52.416;13.412;2022-07-23T09:18:29;12.07;;;6.90;;
2848;SDS011;59355;52.416;13.412;2022-07-23T09:21:05;8.83;;;6.63;;
2848;SDS011;59355;52.416;13.412;2022-07-23T09:23:39;8.50;;;7.50;;
2848;SDS011;59355;52.416;13.412;2022-07-23T09:26:19;8.00;;;7.30;;
2848;SDS011;59355;52.416;13.412;2022-07-23T09:28:50;8.50;;;7.63;;
2848;SDS011;59355;52.416;13.412;2022-07-23T09:31:19;7.90;;;6.80;;
2848;SDS011;59355;52.416;13.412;2022-07-23T09:33:46;8.77;;;7.77;;
2848;SDS011;59355;52.416;13.412;2022-07-23T09:36:12;7.93;;;7.10;;
2848;SDS011;59355;52.416;13.412;2022-07-23T09:38:51;7.30;;;6.57;;
2848;SDS011;59355;52.416;13.412;2022-07-23T09:41:17;6.10;;;5.50;;
2848;SDS011;59355;52.416;13.412;2022-07-23T09:43:43;7.17;;;6.37;;
2848;SDS011;59355;52.416;13.412;2022-07-23T09:46:27;6.60;;;6.00;;
2848;SDS011;59355;52.416;13.412;2022-07-23T09:48:53;6.53;;;5.93;;
2848;SDS011;59355;52.416;13.412;2022-07-23T09:51:22;9.03;;;6.10;;
2848;SDS011;59355;52.416;13.412;2022-07-23T09:54:20;7.60;;;6.87;;
2848;SDS011;59355;52.416;13.412;2022-07-23T09:56:55;9.77;;;5.60;;
2848;SDS011;59355;52.416;13.412;2022-07-23T09:59:24;6.73;;;6.03;;
2848;SDS011;59355;52.416;13.412;2022-07-23T10:01:53;6.73;;;6.10;;
2848;SDS011;59355;52.416;13.412;2022-07-23T10:04:22;8.40;;;7.53;;
2848;SDS011;59355;52.416;13.412;2022-07-23T10:06:52;12.63;;;7.17;;
2848;SDS011;59355;52.416;13.412;2022-07-23T10:09:24;7.70;;;6.90;;
2848;SDS011;59355;52.416;13.412;2022-07-23T10:11:55;7.83;;;5.90;;
2848;SDS011;59355;52.416;13.412;2022-07-23T10:14:31;8.53;;;6.50;;
2848;SDS011;59355;52.416;13.412;2022-07-23T10:17:00;6.23;;;5.63;;
2848;SDS011;59355;52.416;13.412;2022-07-23T10:19:27;5.77;;;5.07;;
2848;SDS011;59355;52.416;13.412;2022-07-23T10:22:00;7.27;;;4.87;;
2848;SDS011;59355;52.416;13.412;2022-07-23T10:30:31;9.47;;;6.03;;
2848;SDS011;59355;52.416;13.412;2022-07-23T10:36:11;8.23;;;6.00;;
2848;SDS011;59355;52.416;13.412;2022-07-23T10:39:07;23.13;;;7.53;;
2848;SDS011;59355;52.416;13.412;2022-07-23T10:41:40;114.67;;;14.70;;
2848;SDS011;59355;52.416;13.412;2022-07-23T10:44:17;28.50;;;7.50;;
2848;SDS011;59355;52.416;13.412;2022-07-23T10:47:02;9.27;;;5.80;;
2848;SDS011;59355;52.416;13.412;2022-07-23T10:49:47;6.10;;;4.83;;
2848;SDS011;59355;52.416;13.412;2022-07-23T10:54:40;6.03;;;4.53;;
2848;SDS011;59355;52.416;13.412;2022-07-23T10:57:07;26.23;;;6.30;;
2848;SDS011;59355;52.416;13.412;2022-07-23T11:02:25;24.27;;;7.00;;
2848;SDS011;59355;52.416;13.412;2022-07-23T11:04:54;5.50;;;4.83;;
2848;SDS011;59355;52.416;13.412;2022-07-23T11:07:26;7.27;;;5.07;;
2848;SDS011;59355;52.416;13.412;2022-07-23T11:09:52;7.50;;;4.77;;
2848;SDS011;59355;52.416;13.412;2022-07-23T11:15:10;5.73;;;4.40;;
2848;SDS011;59355;52.416;13.412;2022-07-23T11:20:20;12.47;;;5.37;;
2848;SDS011;59355;52.416;13.412;2022-07-23T11:22:48;15.73;;;6.97;;
2848;SDS011;59355;52.416;13.412;2022-07-23T11:27:49;7.80;;;4.87;;
2848;SDS011;59355;52.416;13.412;2022-07-23T11:30:36;9.30;;;5.00;;
2848;SDS011;59355;52.416;13.412;2022-07-23T11:35:33;5.53;;;4.97;;
2848;SDS011;59355;52.416;13.412;2022-07-23T11:38:04;10.90;;;5.30;;
2848;SDS011;59355;52.416;13.412;2022-07-23T11:40:34;8.67;;;4.43;;
2848;SDS011;59355;52.416;13.412;2022-07-23T11:43:02;10.93;;;5.10;;
2848;SDS011;59355;52.416;13.412;2022-07-23T11:45:35;13.30;;;5.27;;
2848;SDS011;59355;52.416;13.412;2022-07-23T11:48:03;4.17;;;3.80;;
2848;SDS011;59355;52.416;13.412;2022-07-23T11:50:31;6.33;;;4.23;;
2848;SDS011;59355;52.416;13.412;2022-07-23T11:52:58;5.60;;;4.93;;
2848;SDS011;59355;52.416;13.412;2022-07-23T11:55:24;7.10;;;4.73;;
2848;SDS011;59355;52.416;13.412;2022-07-23T11:57:52;10.27;;;4.53;;
2848;SDS011;59355;52.416;13.412;2022-07-23T12:00:19;5.40;;;4.90;;
2848;SDS011;59355;52.416;13.412;2022-07-23T12:02:49;4.80;;;3.80;;
2848;SDS011;59355;52.416;13.412;2022-07-23T12:05:22;5.07;;;4.57;;
2848;SDS011;59355;52.416;13.412;2022-07-23T12:07:51;5.03;;;4.13;;
2848;SDS011;59355;52.416;13.412;2022-07-23T12:12:53;8.33;;;4.43;;
2848;SDS011;59355;52.416;13.412;2022-07-23T12:17:51;5.70;;;4.97;;
2848;SDS011;59355;52.416;13.412;2022-07-23T12:20:20;4.70;;;4.30;;
2848;SDS011;59355;52.416;13.412;2022-07-23T12:22:50;4.60;;;4.20;;
2848;SDS011;59355;52.416;13.412;2022-07-23T12:25:18;4.63;;;4.23;;
2848;SDS011;59355;52.416;13.412;2022-07-23T12:27:46;4.40;;;4.00;;
2848;SDS011;59355;52.416;13.412;2022-07-23T12:30:40;6.40;;;4.53;;
2848;SDS011;59355;52.416;13.412;2022-07-23T12:33:12;6.90;;;5.23;;
2848;SDS011;59355;52.416;13.412;2022-07-23T12:35:42;5.60;;;5.10;;
2848;SDS011;59355;52.416;13.412;2022-07-23T12:38:11;6.00;;;5.30;;
2848;SDS011;59355;52.416;13.412;2022-07-23T12:43:11;8.60;;;5.30;;
2848;SDS011;59355;52.416;13.412;2022-07-23T12:45:51;5.97;;;5.47;;
2848;SDS011;59355;52.416;13.412;2022-07-23T12:51:02;5.47;;;5.03;;
2848;SDS011;59355;52.416;13.412;2022-07-23T12:55:59;7.60;;;5.60;;
2848;SDS011;59355;52.416;13.412;2022-07-23T12:58:47;5.50;;;4.70;;
2848;SDS011;59355;52.416;13.412;2022-07-23T13:04:03;8.47;;;5.50;;
2848;SDS011;59355;52.416;13.412;2022-07-23T13:06:35;6.47;;;5.53;;
2848;SDS011;59355;52.416;13.412;2022-07-23T13:09:12;7.03;;;5.50;;
2848;SDS011;59355;52.416;13.412;2022-07-23T13:11:40;5.73;;;5.23;;
2848;SDS011;59355;52.416;13.412;2022-07-23T13:14:06;5.90;;;5.30;;
2848;SDS011;59355;52.416;13.412;2022-07-23T13:16:32;9.63;;;5.80;;
2848;SDS011;59355;52.416;13.412;2022-07-23T13:18:59;5.53;;;5.03;;
2848;SDS011;59355;52.416;13.412;2022-07-23T13:21:26;5.47;;;5.00;;
2848;SDS011;59355;52.416;13.412;2022-07-23T13:23:53;5.77;;;5.37;;
2848;SDS011;59355;52.416;13.412;2022-07-23T13:26:20;5.33;;;4.67;;
2848;SDS011;59355;52.416;13.412;2022-07-23T13:28:46;4.97;;;4.57;;
2848;SDS011;59355;52.416;13.412;2022-07-23T13:31:13;5.10;;;4.57;;
2848;SDS011;59355;52.416;13.412;2022-07-23T13:33:39;5.63;;;4.60;;
2848;SDS011;59355;52.416;13.412;2022-07-23T13:36:05;6.53;;;5.17;;
2848;SDS011;59355;52.416;13.412;2022-07-23T13:38:31;6.50;;;4.83;;
2848;SDS011;59355;52.416;13.412;2022-07-23T13:40:58;5.43;;;4.63;;
2848;SDS011;59355;52.416;13.412;2022-07-23T13:43:24;5.87;;;4.50;;
2848;SDS011;59355;52.416;13.412;2022-07-23T13:45:51;4.53;;;3.70;;
2848;SDS011;59355;52.416;13.412;2022-07-23T13:48:18;7.07;;;5.07;;
2848;SDS011;59355;52.416;13.412;2022-07-23T13:50:45;5.00;;;4.57;;
2848;SDS011;59355;52.416;13.412;2022-07-23T13:53:13;4.30;;;3.97;;
2848;SDS011;59355;52.416;13.412;2022-07-23T13:55:41;5.40;;;4.57;;
2848;SDS011;59355;52.416;13.412;2022-07-23T13:58:08;4.87;;;4.47;;
2848;SDS011;59355;52.416;13.412;2022-07-23T14:00:36;5.70;;;4.23;;
2848;SDS011;59355;52.416;13.412;2022-07-23T14:03:07;12.37;;;11.17;;
2848;SDS011;59355;52.416;13.412;2022-07-23T14:05:33;6.30;;;4.47;;
2848;SDS011;59355;52.416;13.412;2022-07-23T14:07:59;4.83;;;4.33;;
2848;SDS011;59355;52.416;13.412;2022-07-23T14:10:26;6.77;;;3.83;;
2848;SDS011;59355;52.416;13.412;2022-07-23T14:12:53;6.63;;;4.07;;
2848;SDS011;59355;52.416;13.412;2022-07-23T14:15:21;5.00;;;3.70;;
2848;SDS011;59355;52.416;13.412;2022-07-23T14:17:49;4.43;;;4.03;;
2848;SDS011;59355;52.416;13.412;2022-07-23T14:20:15;4.13;;;3.50;;
2848;SDS011;59355;52.416;13.412;2022-07-23T14:22:41;4.20;;;3.90;;
2848;SDS011;59355;52.416;13.412;2022-07-23T14:25:08;4.33;;;3.90;;
2848;SDS011;59355;52.416;13.412;2022-07-23T14:27:35;5.57;;;4.03;;
2848;SDS011;59355;52.416;13.412;2022-07-23T14:30:03;7.20;;;3.90;;
2848;SDS011;59355;52.416;13.412;2022-07-23T14:32:33;4.20;;;3.80;;
2848;SDS011;59355;52.416;13.412;2022-07-23T14:34:59;4.33;;;3.50;;
2848;SDS011;59355;52.416;13.412;2022-07-23T14:37:25;3.67;;;3.23;;
2848;SDS011;59355;52.416;13.412;2022-07-23T14:39:51;5.10;;;3.60;;
2848;SDS011;59355;52.416;13.412;2022-07-23T14:42:18;3.70;;;3.03;;
2848;SDS011;59355;52.416;13.412;2022-07-23T14:44:44;3.40;;;3.03;;
2848;SDS011;59355;52.416;13.412;2022-07-23T14:47:10;4.30;;;3.07;;
2848;SDS011;59355;52.416;13.412;2022-07-23T14:49:36;4.60;;;3.40;;
2848;SDS011;59355;52.416;13.412;2022-07-23T14:52:03;3.33;;;3.03;;
2848;SDS011;59355;52.416;13.412;2022-07-23T14:54:30;5.73;;;3.70;;
2848;SDS011;59355;52.416;13.412;2022-07-23T14:56:57;3.53;;;3.23;;
2848;SDS011;59355;52.416;13.412;2022-07-23T14:59:24;3.97;;;3.20;;
2848;SDS011;59355;52.416;13.412;2022-07-23T15:01:50;3.07;;;2.77;;
2848;SDS011;59355;52.416;13.412;2022-07-23T15:04:17;3.13;;;2.83;;
2848;SDS011;59355;52.416;13.412;2022-07-23T15:06:43;3.70;;;2.63;;
2848;SDS011;59355;52.416;13.412;2022-07-23T15:09:10;3.70;;;2.90;;
2848;SDS011;59355;52.416;13.412;2022-07-23T15:11:36;4.37;;;3.27;;
2848;SDS011;59355;52.416;13.412;2022-07-23T15:14:03;3.23;;;2.63;;
2848;SDS011;59355;52.416;13.412;2022-07-23T15:16:30;4.17;;;3.37;;
2848;SDS011;59355;52.416;13.412;2022-07-23T15:18:57;3.53;;;2.73;;
2848;SDS011;59355;52.416;13.412;2022-07-23T15:21:23;5.23;;;3.43;;
2848;SDS011;59355;52.416;13.412;2022-07-23T15:23:50;3.50;;;2.30;;
2848;SDS011;59355;52.416;13.412;2022-07-23T15:26:16;3.43;;;2.90;;
2848;SDS011;59355;52.416;13.412;2022-07-23T15:28:43;3.33;;;2.77;;